sensor_id;sensor_type;location;lat;lon;timestamp;P1;durP1;ratioP1;P2;durP2;ratioP2
4527;SDS011;62320;51.520;6.818;2022-09-09T00:08:53;1.92;;;0.80;;
4527;SDS011;62320;51.520;6.818;2022-09-09T00:14:00;3.83;;;1.30;;
4527;SDS011;62320;51.520;6.818;2022-09-09T00:24:11;3.08;;;1.42;;
4527;SDS011;62320;51.520;6.818;2022-09-09T00:29:28;2.38;;;1.20;;
4527;SDS011;62320;51.520;6.818;2022-09-09T00:34:46;1.83;;;1.35;;
4527;SDS011;62320;51.520;6.818;2022-09-09T00:39:57;3.03;;;1.27;;
4527;SDS011;62320;51.520;6.818;2022-09-09T00:55:45;2.13;;;1.10;;
4527;SDS011;62320;51.520;6.818;2022-09-09T01:01:10;3.83;;;1.05;;
4527;SDS011;62320;51.520;6.818;2022-09-09T01:11:24;1.75;;;0.85;;
4527;SDS011;62320;51.520;6.818;2022-09-09T01:16:27;2.40;;;1.00;;
4527;SDS011;62320;51.520;6.818;2022-09-09T01:27:02;2.20;;;1.10;;
4527;SDS011;62320;51.520;6.818;2022-09-09T01:37:42;2.88;;;1.25;;
4527;SDS011;62320;51.520;6.818;2022-09-09T01:42:43;1.58;;;1.20;;
4527;SDS011;62320;51.520;6.818;2022-09-09T01:47:45;2.47;;;1.38;;
4527;SDS011;62320;51.520;6.818;2022-09-09T01:52:48;3.20;;;1.23;;
4527;SDS011;62320;51.520;6.818;2022-09-09T01:58:17;2.72;;;1.30;;
4527;SDS011;62320;51.520;6.818;2022-09-09T02:03:27;2.70;;;1.80;;
4527;SDS011;62320;51.520;6.818;2022-09-09T02:08:45;2.65;;;1.40;;
4527;SDS011;62320;51.520;6.818;2022-09-09T02:13:53;2.55;;;1.40;;
4527;SDS011;62320;51.520;6.818;2022-09-09T02:19:06;2.35;;;1.13;;
4527;SDS011;62320;51.520;6.818;2022-09-09T02:24:10;3.28;;;1.20;;
4527;SDS011;62320;51.520;6.818;2022-09-09T02:29:18;1.85;;;1.23;;
4527;SDS011;62320;51.520;6.818;2022-09-09T02:34:24;3.30;;;1.50;;
4527;SDS011;62320;51.520;6.818;2022-09-09T02:39:28;3.17;;;1.42;;
4527;SDS011;62320;51.520;6.818;2022-09-09T02:44:30;6.03;;;1.40;;
4527;SDS011;62320;51.520;6.818;2022-09-09T02:49:48;1.70;;;1.10;;
4527;SDS011;62320;51.520;6.818;2022-09-09T02:54:54;2.17;;;1.27;;
4527;SDS011;62320;51.520;6.818;2022-09-09T03:00:01;3.17;;;1.48;;
4527;SDS011;62320;51.520;6.818;2022-09-09T03:05:04;4.75;;;1.60;;
4527;SDS011;62320;51.520;6.818;2022-09-09T03:10:07;2.72;;;1.27;;
4527;SDS011;62320;51.520;6.818;2022-09-09T03:15:09;2.45;;;1.20;;
4527;SDS011;62320;51.520;6.818;2022-09-09T03:20:11;4.18;;;1.40;;
4527;SDS011;62320;51.520;6.818;2022-09-09T03:25:13;5.85;;;2.00;;
4527;SDS011;62320;51.520;6.818;2022-09-09T03:30:14;3.60;;;1.27;;
4527;SDS011;62320;51.520;6.818;2022-09-09T03:35:16;3.92;;;1.45;;
4527;SDS011;62320;51.520;6.818;2022-09-09T03:40:18;5.10;;;1.80;;
4527;SDS011;62320;51.520;6.818;2022-09-09T03:45:21;3.50;;;1.45;;
4527;SDS011;62320;51.520;6.818;2022-09-09T03:50:22;5.63;;;1.40;;
4527;SDS011;62320;51.520;6.818;2022-09-09T03:55:24;3.22;;;1.85;;
4527;SDS011;62320;51.520;6.818;2022-09-09T04:00:25;3.75;;;1.80;;
4527;SDS011;62320;51.520;6.818;2022-09-09T04:05:27;5.70;;;1.92;;
4527;SDS011;62320;51.520;6.818;2022-09-09T04:10:29;5.28;;;1.80;;
4527;SDS011;62320;51.520;6.818;2022-09-09T04:15:31;3.70;;;1.70;;
4527;SDS011;62320;51.520;6.818;2022-09-09T04:20:33;3.47;;;2.08;;
4527;SDS011;62320;51.520;6.818;2022-09-09T04:25:35;5.57;;;2.20;;
4527;SDS011;62320;51.520;6.818;2022-09-09T04:30:36;4.63;;;2.28;;
4527;SDS011;62320;51.520;6.818;2022-09-09T04:35:38;5.22;;;2.00;;
4527;SDS011;62320;51.520;6.818;2022-09-09T04:40:42;4.55;;;2.17;;
4527;SDS011;62320;51.520;6.818;2022-09-09T04:45:46;7.28;;;2.20;;
4527;SDS011;62320;51.520;6.818;2022-09-09T04:50:55;4.35;;;1.85;;
4527;SDS011;62320;51.520;6.818;2022-09-09T04:56:03;2.83;;;1.60;;
4527;SDS011;62320;51.520;6.818;2022-09-09T05:01:06;7.25;;;1.92;;
4527;SDS011;62320;51.520;6.818;2022-09-09T05:06:10;3.60;;;1.90;;
4527;SDS011;62320;51.520;6.818;2022-09-09T05:11:18;4.72;;;1.70;;
4527;SDS011;62320;51.520;6.818;2022-09-09T05:16:25;4.22;;;1.80;;
4527;SDS011;62320;51.520;6.818;2022-09-09T05:21:27;4.13;;;1.90;;
4527;SDS011;62320;51.520;6.818;2022-09-09T05:26:29;6.82;;;2.10;;
4527;SDS011;62320;51.520;6.818;2022-09-09T05:31:31;6.80;;;2.05;;
4527;SDS011;62320;51.520;6.818;2022-09-09T05:36:33;5.93;;;1.90;;
4527;SDS011;62320;51.520;6.818;2022-09-09T05:41:35;6.28;;;2.22;;
4527;SDS011;62320;51.520;6.818;2022-09-09T05:46:37;5.00;;;2.40;;
4527;SDS011;62320;51.520;6.818;2022-09-09T05:51:39;8.18;;;2.97;;
4527;SDS011;62320;51.520;6.818;2022-09-09T05:56:41;5.75;;;2.30;;
4527;SDS011;62320;51.520;6.818;2022-09-09T06:01:43;5.70;;;2.65;;
4527;SDS011;62320;51.520;6.818;2022-09-09T06:06:46;5.55;;;2.55;;
4527;SDS011;62320;51.520;6.818;2022-09-09T06:11:47;7.68;;;3.28;;
4527;SDS011;62320;51.520;6.818;2022-09-09T06:16:49;6.40;;;2.25;;
4527;SDS011;62320;51.520;6.818;2022-09-09T06:21:51;4.03;;;2.50;;
4527;SDS011;62320;51.520;6.818;2022-09-09T06:26:52;8.85;;;2.15;;
4527;SDS011;62320;51.520;6.818;2022-09-09T06:31:54;5.85;;;2.38;;
4527;SDS011;62320;51.520;6.818;2022-09-09T06:36:56;6.70;;;2.30;;
4527;SDS011;62320;51.520;6.818;2022-09-09T06:41:59;8.98;;;3.28;;
4527;SDS011;62320;51.520;6.818;2022-09-09T06:47:01;7.57;;;2.00;;
4527;SDS011;62320;51.520;6.818;2022-09-09T06:52:03;5.57;;;1.90;;
4527;SDS011;62320;51.520;6.818;2022-09-09T07:04:28;7.32;;;2.55;;
4527;SDS011;62320;51.520;6.818;2022-09-09T07:09:30;4.60;;;1.80;;
4527;SDS011;62320;51.520;6.818;2022-09-09T07:14:32;5.93;;;1.80;;
4527;SDS011;62320;51.520;6.818;2022-09-09T07:19:37;3.83;;;1.60;;
4527;SDS011;62320;51.520;6.818;2022-09-09T07:24:38;7.28;;;1.98;;
4527;SDS011;62320;51.520;6.818;2022-09-09T07:29:39;5.57;;;1.83;;
4527;SDS011;62320;51.520;6.818;2022-09-09T07:34:41;7.72;;;1.70;;
4527;SDS011;62320;51.520;6.818;2022-09-09T07:39:42;6.20;;;1.70;;
4527;SDS011;62320;51.520;6.818;2022-09-09T07:44:44;5.65;;;1.85;;
4527;SDS011;62320;51.520;6.818;2022-09-09T07:49:46;3.30;;;1.48;;
4527;SDS011;62320;51.520;6.818;2022-09-09T07:54:48;10.00;;;2.00;;
4527;SDS011;62320;51.520;6.818;2022-09-09T07:59:49;5.50;;;1.90;;
4527;SDS011;62320;51.520;6.818;2022-09-09T08:04:51;6.63;;;2.28;;
4527;SDS011;62320;51.520;6.818;2022-09-09T08:09:53;6.22;;;1.60;;
4527;SDS011;62320;51.520;6.818;2022-09-09T08:14:56;7.07;;;1.70;;
4527;SDS011;62320;51.520;6.818;2022-09-09T08:19:57;5.68;;;1.38;;
4527;SDS011;62320;51.520;6.818;2022-09-09T08:25:02;4.47;;;1.23;;
4527;SDS011;62320;51.520;6.818;2022-09-09T08:30:07;4.35;;;1.52;;
4527;SDS011;62320;51.520;6.818;2022-09-09T08:35:09;10.30;;;2.20;;
4527;SDS011;62320;51.520;6.818;2022-09-09T08:40:16;7.30;;;1.77;;
4527;SDS011;62320;51.520;6.818;2022-09-09T08:50:43;5.00;;;1.15;;
4527;SDS011;62320;51.520;6.818;2022-09-09T08:55:52;7.95;;;1.50;;
4527;SDS011;62320;51.520;6.818;2022-09-09T09:06:24;4.47;;;1.60;;
4527;SDS011;62320;51.520;6.818;2022-09-09T09:11:42;2.85;;;0.88;;
4527;SDS011;62320;51.520;6.818;2022-09-09T09:17:00;5.05;;;1.20;;
4527;SDS011;62320;51.520;6.818;2022-09-09T09:33:12;5.72;;;1.27;;
4527;SDS011;62320;51.520;6.818;2022-09-09T09:38:21;6.40;;;2.00;;
4527;SDS011;62320;51.520;6.818;2022-09-09T09:43:52;2.85;;;1.27;;
4527;SDS011;62320;51.520;6.818;2022-09-09T09:49:02;4.20;;;1.35;;
4527;SDS011;62320;51.520;6.818;2022-09-09T09:59:35;6.82;;;1.92;;
4527;SDS011;62320;51.520;6.818;2022-09-09T10:04:41;5.85;;;1.52;;
4527;SDS011;62320;51.520;6.818;2022-09-09T10:09:42;3.38;;;1.13;;
4527;SDS011;62320;51.520;6.818;2022-09-09T10:19:50;4.18;;;1.30;;
4527;SDS011;62320;51.520;6.818;2022-09-09T10:41:18;6.22;;;1.38;;
4527;SDS011;62320;51.520;6.818;2022-09-09T10:57:17;8.52;;;2.58;;
4527;SDS011;62320;51.520;6.818;2022-09-09T11:02:27;6.32;;;3.15;;
4527;SDS011;62320;51.520;6.818;2022-09-09T11:07:33;5.95;;;1.75;;
4527;SDS011;62320;51.520;6.818;2022-09-09T11:12:40;4.28;;;1.40;;
4527;SDS011;62320;51.520;6.818;2022-09-09T11:17:47;4.78;;;1.65;;
4527;SDS011;62320;51.520;6.818;2022-09-09T11:43:51;3.08;;;1.10;;
4527;SDS011;62320;51.520;6.818;2022-09-09T11:49:03;4.95;;;1.50;;
4527;SDS011;62320;51.520;6.818;2022-09-09T11:54:27;4.78;;;1.30;;
4527;SDS011;62320;51.520;6.818;2022-09-09T11:59:33;3.75;;;0.90;;
4527;SDS011;62320;51.520;6.818;2022-09-09T12:04:35;1.77;;;0.80;;
4527;SDS011;62320;51.520;6.818;2022-09-09T12:14:56;4.13;;;1.08;;
4527;SDS011;62320;51.520;6.818;2022-09-09T12:20:17;3.13;;;0.95;;
4527;SDS011;62320;51.520;6.818;2022-09-09T12:36:24;2.08;;;0.73;;
4527;SDS011;62320;51.520;6.818;2022-09-09T12:41:29;3.35;;;0.80;;
4527;SDS011;62320;51.520;6.818;2022-09-09T12:46:33;2.47;;;0.90;;
4527;SDS011;62320;51.520;6.818;2022-09-09T12:51:43;2.97;;;0.93;;
4527;SDS011;62320;51.520;6.818;2022-09-09T12:56:45;3.45;;;0.70;;
4527;SDS011;62320;51.520;6.818;2022-09-09T13:01:54;2.92;;;0.90;;
4527;SDS011;62320;51.520;6.818;2022-09-09T13:07:06;3.03;;;1.45;;
4527;SDS011;62320;51.520;6.818;2022-09-09T13:12:19;2.78;;;0.80;;
4527;SDS011;62320;51.520;6.818;2022-09-09T13:17:25;6.63;;;1.85;;
4527;SDS011;62320;51.520;6.818;2022-09-09T13:22:30;4.97;;;1.77;;
4527;SDS011;62320;51.520;6.818;2022-09-09T13:27:34;3.33;;;1.42;;
4527;SDS011;62320;51.520;6.818;2022-09-09T13:32:40;2.88;;;1.38;;
4527;SDS011;62320;51.520;6.818;2022-09-09T13:37:41;5.93;;;1.40;;
4527;SDS011;62320;51.520;6.818;2022-09-09T13:42:42;3.70;;;1.30;;
4527;SDS011;62320;51.520;6.818;2022-09-09T13:47:46;4.40;;;1.50;;
4527;SDS011;62320;51.520;6.818;2022-09-09T13:52:52;4.68;;;1.63;;
4527;SDS011;62320;51.520;6.818;2022-09-09T13:57:58;2.65;;;1.52;;
4527;SDS011;62320;51.520;6.818;2022-09-09T14:03:02;5.75;;;1.60;;
4527;SDS011;62320;51.520;6.818;2022-09-09T14:08:04;5.53;;;1.67;;
4527;SDS011;62320;51.520;6.818;2022-09-09T14:13:07;3.60;;;1.50;;
4527;SDS011;62320;51.520;6.818;2022-09-09T14:18:10;5.70;;;1.50;;
4527;SDS011;62320;51.520;6.818;2022-09-09T14:23:14;4.05;;;1.50;;
4527;SDS011;62320;51.520;6.818;2022-09-09T14:28:16;3.47;;;1.30;;
4527;SDS011;62320;51.520;6.818;2022-09-09T14:33:26;5.43;;;1.75;;
4527;SDS011;62320;51.520;6.818;2022-09-09T14:38:30;4.55;;;1.63;;
4527;SDS011;62320;51.520;6.818;2022-09-09T14:43:34;3.42;;;1.10;;
4527;SDS011;62320;51.520;6.818;2022-09-09T14:48:36;1.90;;;1.20;;
4527;SDS011;62320;51.520;6.818;2022-09-09T14:53:38;5.25;;;1.10;;
4527;SDS011;62320;51.520;6.818;2022-09-09T14:58:40;3.25;;;0.90;;
4527;SDS011;62320;51.520;6.818;2022-09-09T15:03:42;3.88;;;0.70;;
4527;SDS011;62320;51.520;6.818;2022-09-09T15:08:50;2.65;;;0.93;;
4527;SDS011;62320;51.520;6.818;2022-09-09T15:13:53;3.15;;;0.70;;
4527;SDS011;62320;51.520;6.818;2022-09-09T15:18:57;3.88;;;0.75;;
4527;SDS011;62320;51.520;6.818;2022-09-09T15:23:59;2.15;;;0.90;;
4527;SDS011;62320;51.520;6.818;2022-09-09T15:29:00;2.60;;;1.05;;
4527;SDS011;62320;51.520;6.818;2022-09-09T15:34:05;2.95;;;0.90;;
4527;SDS011;62320;51.520;6.818;2022-09-09T15:39:09;3.08;;;1.00;;
4527;SDS011;62320;51.520;6.818;2022-09-09T15:44:16;2.63;;;0.88;;
4527;SDS011;62320;51.520;6.818;2022-09-09T15:49:21;3.00;;;1.10;;
4527;SDS011;62320;51.520;6.818;2022-09-09T15:54:26;6.18;;;1.23;;
4527;SDS011;62320;51.520;6.818;2022-09-09T15:59:28;2.78;;;1.60;;
4527;SDS011;62320;51.520;6.818;2022-09-09T16:04:30;2.17;;;1.20;;
4527;SDS011;62320;51.520;6.818;2022-09-09T16:09:33;1.75;;;1.00;;
4527;SDS011;62320;51.520;6.818;2022-09-09T16:14:36;2.10;;;1.02;;
4527;SDS011;62320;51.520;6.818;2022-09-09T16:19:37;1.50;;;0.80;;
4527;SDS011;62320;51.520;6.818;2022-09-09T16:24:42;1.48;;;0.70;;
4527;SDS011;62320;51.520;6.818;2022-09-09T16:29:55;1.63;;;0.55;;
4527;SDS011;62320;51.520;6.818;2022-09-09T16:34:57;3.28;;;0.70;;
4527;SDS011;62320;51.520;6.818;2022-09-09T16:39:58;2.50;;;0.80;;
4527;SDS011;62320;51.520;6.818;2022-09-09T16:45:00;2.45;;;1.25;;
4527;SDS011;62320;51.520;6.818;2022-09-09T16:50:02;2.33;;;0.90;;
4527;SDS011;62320;51.520;6.818;2022-09-09T16:55:03;1.55;;;0.90;;
4527;SDS011;62320;51.520;6.818;2022-09-09T17:00:06;3.83;;;1.05;;
4527;SDS011;62320;51.520;6.818;2022-09-09T17:05:08;3.28;;;1.30;;
4527;SDS011;62320;51.520;6.818;2022-09-09T17:10:10;2.65;;;1.30;;
4527;SDS011;62320;51.520;6.818;2022-09-09T17:15:11;3.15;;;1.40;;
4527;SDS011;62320;51.520;6.818;2022-09-09T17:20:13;3.78;;;1.40;;
4527;SDS011;62320;51.520;6.818;2022-09-09T17:25:17;3.05;;;1.60;;
4527;SDS011;62320;51.520;6.818;2022-09-09T17:30:18;3.35;;;1.50;;
4527;SDS011;62320;51.520;6.818;2022-09-09T17:35:19;3.90;;;1.40;;
4527;SDS011;62320;51.520;6.818;2022-09-09T17:40:21;4.38;;;1.42;;
4527;SDS011;62320;51.520;6.818;2022-09-09T17:45:23;1.90;;;1.63;;
4527;SDS011;62320;51.520;6.818;2022-09-09T17:50:24;2.58;;;1.30;;
4527;SDS011;62320;51.520;6.818;2022-09-09T17:55:25;3.05;;;1.40;;
4527;SDS011;62320;51.520;6.818;2022-09-09T18:00:27;1.58;;;1.15;;
4527;SDS011;62320;51.520;6.818;2022-09-09T18:05:31;2.22;;;1.20;;
4527;SDS011;62320;51.520;6.818;2022-09-09T18:10:32;2.55;;;1.60;;
4527;SDS011;62320;51.520;6.818;2022-09-09T18:15:36;3.38;;;1.80;;
4527;SDS011;62320;51.520;6.818;2022-09-09T18:20:59;2.20;;;1.30;;
4527;SDS011;62320;51.520;6.818;2022-09-09T18:26:08;3.35;;;1.40;;
4527;SDS011;62320;51.520;6.818;2022-09-09T18:31:13;2.95;;;1.52;;
4527;SDS011;62320;51.520;6.818;2022-09-09T18:36:17;3.90;;;1.63;;
4527;SDS011;62320;51.520;6.818;2022-09-09T18:41:28;6.13;;;2.10;;
4527;SDS011;62320;51.520;6.818;2022-09-09T18:46:32;3.70;;;1.50;;
4527;SDS011;62320;51.520;6.818;2022-09-09T18:51:35;7.72;;;1.60;;
4527;SDS011;62320;51.520;6.818;2022-09-09T18:56:37;4.85;;;1.60;;
4527;SDS011;62320;51.520;6.818;2022-09-09T19:01:39;3.20;;;1.75;;
4527;SDS011;62320;51.520;6.818;2022-09-09T19:06:41;4.93;;;2.25;;
4527;SDS011;62320;51.520;6.818;2022-09-09T19:11:46;4.03;;;2.20;;
4527;SDS011;62320;51.520;6.818;2022-09-09T19:16:48;7.18;;;2.42;;
4527;SDS011;62320;51.520;6.818;2022-09-09T19:21:49;5.50;;;2.10;;
4527;SDS011;62320;51.520;6.818;2022-09-09T19:26:52;4.10;;;1.88;;
4527;SDS011;62320;51.520;6.818;2022-09-09T19:31:58;4.10;;;1.40;;
4527;SDS011;62320;51.520;6.818;2022-09-09T19:37:22;5.20;;;1.98;;
4527;SDS011;62320;51.520;6.818;2022-09-09T19:42:24;5.38;;;1.42;;
4527;SDS011;62320;51.520;6.818;2022-09-09T19:47:25;3.30;;;1.58;;
4527;SDS011;62320;51.520;6.818;2022-09-09T19:52:27;4.97;;;1.98;;
4527;SDS011;62320;51.520;6.818;2022-09-09T19:57:28;4.22;;;1.63;;
4527;SDS011;62320;51.520;6.818;2022-09-09T20:02:30;2.97;;;1.60;;
4527;SDS011;62320;51.520;6.818;2022-09-09T20:07:32;3.75;;;1.52;;
4527;SDS011;62320;51.520;6.818;2022-09-09T20:12:34;6.05;;;2.00;;
4527;SDS011;62320;51.520;6.818;2022-09-09T20:17:35;5.63;;;2.20;;
4527;SDS011;62320;51.520;6.818;2022-09-09T20:22:37;6.32;;;1.90;;
4527;SDS011;62320;51.520;6.818;2022-09-09T20:27:38;4.68;;;2.17;;
4527;SDS011;62320;51.520;6.818;2022-09-09T20:32:40;2.80;;;1.92;;
4527;SDS011;62320;51.520;6.818;2022-09-09T20:37:42;4.72;;;1.98;;
4527;SDS011;62320;51.520;6.818;2022-09-09T20:42:43;6.38;;;2.50;;
4527;SDS011;62320;51.520;6.818;2022-09-09T20:47:45;4.30;;;2.03;;
4527;SDS011;62320;51.520;6.818;2022-09-09T20:52:46;5.07;;;2.53;;
4527;SDS011;62320;51.520;6.818;2022-09-09T20:57:48;5.68;;;2.20;;
4527;SDS011;62320;51.520;6.818;2022-09-09T21:02:51;4.65;;;2.30;;
4527;SDS011;62320;51.520;6.818;2022-09-09T21:07:53;5.10;;;2.22;;
4527;SDS011;62320;51.520;6.818;2022-09-09T21:12:55;6.10;;;2.10;;
4527;SDS011;62320;51.520;6.818;2022-09-09T21:17:58;4.15;;;2.40;;
4527;SDS011;62320;51.520;6.818;2022-09-09T21:23:00;5.38;;;2.42;;
4527;SDS011;62320;51.520;6.818;2022-09-09T21:28:02;5.50;;;2.22;;
4527;SDS011;62320;51.520;6.818;2022-09-09T21:33:04;4.18;;;2.17;;
4527;SDS011;62320;51.520;6.818;2022-09-09T21:38:06;3.85;;;2.03;;
4527;SDS011;62320;51.520;6.818;2022-09-09T21:43:12;5.15;;;2.20;;
4527;SDS011;62320;51.520;6.818;2022-09-09T21:48:14;5.07;;;2.45;;
4527;SDS011;62320;51.520;6.818;2022-09-09T21:53:17;6.13;;;2.53;;
4527;SDS011;62320;51.520;6.818;2022-09-09T21:58:20;6.20;;;2.25;;
4527;SDS011;62320;51.520;6.818;2022-09-09T22:03:21;5.95;;;2.40;;
4527;SDS011;62320;51.520;6.818;2022-09-09T22:08:23;5.95;;;2.30;;
4527;SDS011;62320;51.520;6.818;2022-09-09T22:13:25;6.05;;;2.22;;
4527;SDS011;62320;51.520;6.818;2022-09-09T22:18:27;5.13;;;2.00;;
4527;SDS011;62320;51.520;6.818;2022-09-09T22:23:29;7.95;;;2.92;;
4527;SDS011;62320;51.520;6.818;2022-09-09T22:28:32;4.95;;;2.50;;
4527;SDS011;62320;51.520;6.818;2022-09-09T22:33:34;6.97;;;2.78;;
4527;SDS011;62320;51.520;6.818;2022-09-09T22:38:37;7.55;;;2.22;;
4527;SDS011;62320;51.520;6.818;2022-09-09T22:43:42;3.60;;;2.17;;
4527;SDS011;62320;51.520;6.818;2022-09-09T22:48:43;5.38;;;2.28;;
4527;SDS011;62320;51.520;6.818;2022-09-09T22:53:45;8.80;;;2.70;;
4527;SDS011;62320;51.520;6.818;2022-09-09T22:58:51;5.45;;;1.92;;
4527;SDS011;62320;51.520;6.818;2022-09-09T23:03:56;5.00;;;2.05;;
4527;SDS011;62320;51.520;6.818;2022-09-09T23:09:02;6.20;;;2.50;;
4527;SDS011;62320;51.520;6.818;2022-09-09T23:14:05;4.32;;;2.20;;
4527;SDS011;62320;51.520;6.818;2022-09-09T23:19:13;5.07;;;2.00;;
4527;SDS011;62320;51.520;6.818;2022-09-09T23:24:16;5.72;;;2.25;;
4527;SDS011;62320;51.520;6.818;2022-09-09T23:29:17;4.75;;;2.10;;
4527;SDS011;62320;51.520;6.818;2022-09-09T23:34:19;8.52;;;2.08;;
4527;SDS011;62320;51.520;6.818;2022-09-09T23:39:20;4.60;;;1.83;;
4527;SDS011;62320;51.520;6.818;2022-09-09T23:44:23;5.50;;;1.98;;
4527;SDS011;62320;51.520;6.818;2022-09-09T23:49:24;6.15;;;2.70;;
4527;SDS011;62320;51.520;6.818;2022-09-09T23:54:26;7.07;;;2.20;;
4527;SDS011;62320;51.520;6.818;2022-09-09T23:59:28;4.88;;;2.30;;
